Time;durP1;ratioP1;P1;durP2;ratioP2;P2;SDS_P1;SDS_P2;PMS_P1;PMS_P2;Temp;Humidity;BMP_temperature;BMP_pressure;BME280_temperature;BME280_humidity;BME280_pressure;Samples;Min_cycle;Max_cycle;Signal;HPM_P1;HPM_P2
2023/03/18 00:02:48;;;;;;;14.43;7.93;;;5.90;99.90;;;;;;5107214;27;20218;-66
2023/03/18 00:05:37;;;;;;;16.40;7.80;;;6.00;99.90;;;;;;5085219;28;20220;-67
2023/03/18 00:08:26;;;;;;;16.90;7.67;;;5.90;99.90;;;;;;5078056;28;20279;-66
2023/03/18 00:11:18;;;;;;;14.40;7.60;;;6.00;99.90;;;;;;5081104;28;20665;-66
2023/03/18 00:14:08;;;;;;;13.90;7.17;;;6.00;99.90;;;;;;5077529;28;20227;-67
2023/03/18 00:16:57;;;;;;;13.17;7.43;;;6.00;99.90;;;;;;5083225;27;20227;-65
2023/03/18 00:19:47;;;;;;;15.03;7.60;;;6.00;99.90;;;;;;5079360;28;20229;-66
2023/03/18 00:22:37;;;;;;;14.90;7.70;;;5.90;99.90;;;;;;5090343;27;20668;-65
2023/03/18 00:25:27;;;;;;;15.90;7.37;;;5.90;99.90;;;;;;5080843;28;20220;-66
2023/03/18 00:28:17;;;;;;;14.07;6.73;;;5.80;99.90;;;;;;5080505;28;20239;-64
2023/03/18 00:31:08;;;;;;;12.13;6.53;;;5.80;99.90;;;;;;5075428;28;20322;-67
2023/03/18 00:33:57;;;;;;;13.73;6.83;;;5.80;99.90;;;;;;5080590;28;20224;-66
2023/03/18 00:36:49;;;;;;;13.97;7.13;;;5.80;99.90;;;;;;5079886;28;20270;-66
2023/03/18 00:39:43;;;;;;;13.57;7.10;;;5.80;99.90;;;;;;5084618;28;20220;-65
2023/03/18 00:42:37;;;;;;;12.73;6.93;;;5.80;99.90;;;;;;5080916;28;20223;-63
2023/03/18 00:45:28;;;;;;;14.87;6.67;;;5.70;99.90;;;;;;5107616;27;20220;-66
2023/03/18 00:48:18;;;;;;;16.30;7.37;;;5.70;99.90;;;;;;5081685;28;20708;-64
2023/03/18 00:51:07;;;;;;;13.17;7.07;;;5.70;99.90;;;;;;5093206;28;20227;-66
2023/03/18 00:54:00;;;;;;;12.33;6.47;;;5.80;99.90;;;;;;5095149;28;20292;-64
2023/03/18 00:56:49;;;;;;;14.20;7.07;;;5.70;99.90;;;;;;5086554;28;20230;-64
2023/03/18 00:59:38;;;;;;;14.30;6.93;;;5.70;99.90;;;;;;5080588;28;20227;-65
2023/03/18 01:02:28;;;;;;;12.53;6.50;;;5.70;99.90;;;;;;5073548;28;20230;-64
2023/03/18 01:05:18;;;;;;;13.60;7.10;;;5.70;99.90;;;;;;5083964;28;20296;-65
2023/03/18 01:08:07;;;;;;;13.77;6.67;;;5.70;99.90;;;;;;5093219;28;20337;-65
2023/03/18 01:10:56;;;;;;;13.73;5.87;;;5.70;99.90;;;;;;5074915;28;21626;-66
2023/03/18 01:13:45;;;;;;;13.47;5.80;;;5.70;99.90;;;;;;5076820;28;20255;-68
2023/03/18 01:16:34;;;;;;;13.77;6.27;;;5.70;99.90;;;;;;5076876;28;20236;-66
2023/03/18 01:19:25;;;;;;;11.87;6.20;;;5.60;99.90;;;;;;5078218;28;20324;-66
2023/03/18 01:22:14;;;;;;;13.53;6.47;;;5.60;99.90;;;;;;5095352;28;20241;-66
2023/03/18 01:25:08;;;;;;;12.37;5.70;;;5.60;99.90;;;;;;5078509;28;20386;-66
2023/03/18 01:27:58;;;;;;;13.33;6.50;;;5.50;99.90;;;;;;5093456;28;20227;-66
2023/03/18 01:30:47;;;;;;;9.97;5.60;;;5.60;99.90;;;;;;5086611;28;20215;-68
2023/03/18 01:33:40;;;;;;;12.20;5.77;;;5.50;99.90;;;;;;5092728;27;20227;-66
2023/03/18 01:36:30;;;;;;;12.37;5.90;;;5.50;99.90;;;;;;5074475;28;20237;-66
2023/03/18 01:39:26;;;;;;;15.33;6.33;;;5.50;99.90;;;;;;5072977;28;20360;-66
2023/03/18 01:42:16;;;;;;;11.60;6.03;;;5.50;99.90;;;;;;5092573;28;20234;-64
2023/03/18 01:45:16;;;;;;;12.20;5.90;;;5.50;99.90;;;;;;5065096;28;20219;-64
2023/03/18 01:48:13;;;;;;;11.73;5.43;;;5.50;99.90;;;;;;5095848;28;20831;-65
2023/03/18 01:51:05;;;;;;;11.37;5.60;;;5.50;99.90;;;;;;5084405;28;20357;-65
2023/03/18 01:53:59;;;;;;;11.57;5.80;;;5.50;99.90;;;;;;5087337;28;20219;-64
2023/03/18 01:56:49;;;;;;;12.37;5.77;;;5.40;99.90;;;;;;5091923;28;20833;-66
2023/03/18 01:59:41;;;;;;;10.27;5.50;;;5.40;99.90;;;;;;5077218;28;20266;-64
2023/03/18 02:02:30;;;;;;;11.03;5.80;;;5.40;99.90;;;;;;5079284;28;20310;-65
2023/03/18 02:05:22;;;;;;;11.53;5.77;;;5.40;99.90;;;;;;5081374;28;20235;-65
2023/03/18 02:08:11;;;;;;;10.97;5.40;;;5.40;99.90;;;;;;5082712;27;20279;-65
2023/03/18 02:11:02;;;;;;;13.17;5.63;;;5.40;99.90;;;;;;5075238;28;20219;-65
2023/03/18 02:13:52;;;;;;;13.97;5.50;;;5.50;99.90;;;;;;5084450;28;20215;-65
2023/03/18 02:16:45;;;;;;;10.00;5.17;;;5.40;99.90;;;;;;5075113;28;20323;-64
2023/03/18 02:19:49;;;;;;;12.27;4.93;;;5.40;99.90;;;;;;5106159;28;20254;-66
2023/03/18 02:22:43;;;;;;;12.07;5.17;;;5.40;99.90;;;;;;5078829;28;20720;-65
2023/03/18 02:25:39;;;;;;;9.60;4.83;;;5.30;99.90;;;;;;5077436;28;20703;-66
2023/03/18 02:28:31;;;;;;;13.37;5.20;;;5.40;99.90;;;;;;5088283;28;20242;-66
2023/03/18 02:31:21;;;;;;;12.33;5.50;;;5.30;99.90;;;;;;5062781;28;20365;-66
2023/03/18 02:34:12;;;;;;;9.60;4.67;;;5.30;99.90;;;;;;5084302;28;20216;-66
2023/03/18 02:37:03;;;;;;;8.47;4.77;;;5.30;99.90;;;;;;5071597;28;20243;-66
2023/03/18 02:39:52;;;;;;;10.23;4.80;;;5.20;99.90;;;;;;5091200;28;20733;-66
2023/03/18 02:42:41;;;;;;;9.43;4.80;;;5.30;99.90;;;;;;5076940;28;20219;-66
2023/03/18 02:45:43;;;;;;;9.43;4.57;;;5.30;99.90;;;;;;5104312;27;20224;-66
2023/03/18 02:48:38;;;;;;;11.03;4.70;;;5.30;99.90;;;;;;5074430;28;20265;-65
2023/03/18 02:51:28;;;;;;;9.80;4.73;;;5.30;99.90;;;;;;5091374;28;20365;-65
2023/03/18 02:54:19;;;;;;;11.20;4.93;;;5.20;99.90;;;;;;5076978;28;20227;-65
2023/03/18 02:57:08;;;;;;;13.30;5.30;;;5.20;99.90;;;;;;5079682;28;20227;-64
2023/03/18 02:59:59;;;;;;;9.30;4.40;;;5.30;99.90;;;;;;5076437;28;20216;-66
2023/03/18 03:02:50;;;;;;;8.17;4.47;;;5.30;99.90;;;;;;5090378;28;20959;-64
2023/03/18 03:05:40;;;;;;;8.20;4.23;;;5.40;99.90;;;;;;5083705;28;20216;-64
2023/03/18 03:08:29;;;;;;;9.83;4.20;;;5.30;99.90;;;;;;5092669;28;20219;-65
2023/03/18 03:11:20;;;;;;;7.83;3.67;;;5.30;99.90;;;;;;5082564;28;20776;-66
2023/03/18 03:14:15;;;;;;;7.93;3.73;;;5.30;99.90;;;;;;5080954;28;20280;-64
2023/03/18 03:17:08;;;;;;;8.37;4.67;;;5.20;99.90;;;;;;5079265;28;21524;-66
2023/03/18 03:19:58;;;;;;;9.70;4.00;;;5.20;99.90;;;;;;5080447;28;20254;-66
2023/03/18 03:22:47;;;;;;;7.63;4.07;;;5.30;99.90;;;;;;5077062;28;20216;-66
2023/03/18 03:25:38;;;;;;;8.80;3.80;;;5.30;99.90;;;;;;5073944;28;20891;-64
2023/03/18 03:28:27;;;;;;;12.50;4.73;;;5.20;99.90;;;;;;5092678;28;20235;-66
2023/03/18 03:31:16;;;;;;;9.93;4.27;;;5.30;99.90;;;;;;5068284;28;20219;-73
2023/03/18 03:34:05;;;;;;;8.00;4.20;;;5.20;99.90;;;;;;5081123;28;20543;-69
2023/03/18 03:36:55;;;;;;;9.70;4.20;;;5.20;99.90;;;;;;5083764;28;20775;-67
2023/03/18 03:39:47;;;;;;;9.10;4.50;;;5.20;99.90;;;;;;5081464;28;20227;-67
2023/03/18 03:42:36;;;;;;;10.63;4.13;;;5.20;99.90;;;;;;5109535;27;20305;-64
2023/03/18 03:45:25;;;;;;;9.20;4.37;;;5.10;99.90;;;;;;5071018;28;20238;-64
2023/03/18 03:48:15;;;;;;;8.47;3.70;;;5.10;99.90;;;;;;5088046;27;20216;-65
2023/03/18 03:51:04;;;;;;;10.43;4.30;;;5.10;99.90;;;;;;5080575;27;20726;-66
2023/03/18 03:53:54;;;;;;;8.27;4.10;;;5.20;99.90;;;;;;5075857;28;20245;-65
2023/03/18 03:56:43;;;;;;;10.33;4.00;;;5.10;99.90;;;;;;5092041;28;20217;-67
2023/03/18 03:59:32;;;;;;;10.80;3.83;;;5.10;99.90;;;;;;5076443;28;20277;-67
2023/03/18 04:02:52;;;;;;;10.60;4.33;;;5.10;99.90;;;;;;5078406;28;20587;-68
2023/03/18 04:05:42;;;;;;;8.10;3.67;;;5.20;99.90;;;;;;5079318;28;20354;-67
2023/03/18 04:08:32;;;;;;;10.43;4.57;;;5.10;99.90;;;;;;5080311;28;20228;-67
2023/03/18 04:11:25;;;;;;;12.63;4.50;;;5.20;99.90;;;;;;5074239;28;20215;-67
2023/03/18 04:14:15;;;;;;;10.73;4.20;;;5.20;99.90;;;;;;5092260;28;20304;-66
2023/03/18 04:17:04;;;;;;;8.70;3.80;;;5.10;99.90;;;;;;5080027;28;21033;-67
2023/03/18 04:19:53;;;;;;;10.20;4.33;;;5.10;99.90;;;;;;5079666;28;20300;-67
2023/03/18 04:22:45;;;;;;;10.90;3.90;;;5.10;99.90;;;;;;5074019;28;20228;-66
2023/03/18 04:25:36;;;;;;;11.93;4.40;;;5.00;99.90;;;;;;5095363;28;20594;-65
2023/03/18 04:28:26;;;;;;;9.00;3.53;;;5.00;99.90;;;;;;5079414;28;20323;-65
2023/03/18 04:31:15;;;;;;;11.37;4.10;;;5.00;99.90;;;;;;5078249;28;20228;-65
2023/03/18 04:34:04;;;;;;;10.27;4.20;;;5.00;99.90;;;;;;5079294;28;20333;-66
2023/03/18 04:36:54;;;;;;;11.13;3.93;;;5.00;99.90;;;;;;5105999;27;20216;-66
2023/03/18 04:39:44;;;;;;;9.70;4.10;;;5.00;99.90;;;;;;5103845;27;20235;-66
2023/03/18 04:42:34;;;;;;;7.60;4.00;;;5.00;99.90;;;;;;5076644;28;20856;-67
2023/03/18 04:45:25;;;;;;;10.10;4.00;;;5.00;99.90;;;;;;5079458;28;20223;-67
2023/03/18 04:48:17;;;;;;;8.13;3.70;;;5.00;99.90;;;;;;5073793;28;20219;-67
2023/03/18 04:51:08;;;;;;;11.13;3.90;;;5.10;99.90;;;;;;5072886;28;20230;-67
2023/03/18 04:53:57;;;;;;;13.83;7.33;;;4.90;99.90;;;;;;5086664;28;20220;-66
2023/03/18 04:56:50;;;;;;;12.20;3.93;;;5.00;99.90;;;;;;5090490;28;20230;-65
2023/03/18 04:59:39;;;;;;;9.37;3.83;;;4.90;99.90;;;;;;5087530;28;20226;-65
2023/03/18 05:02:30;;;;;;;11.03;3.93;;;5.00;99.90;;;;;;5096305;27;20215;-64
2023/03/18 05:05:19;;;;;;;7.33;3.43;;;5.00;99.90;;;;;;5078712;28;20602;-65
2023/03/18 05:08:11;;;;;;;8.80;4.23;;;5.00;99.90;;;;;;5078567;28;20682;-65
2023/03/18 05:11:00;;;;;;;7.53;3.77;;;5.00;99.90;;;;;;5085637;28;20223;-66
2023/03/18 05:13:50;;;;;;;6.80;3.90;;;5.00;99.90;;;;;;5093132;28;20223;-64
2023/03/18 05:16:42;;;;;;;8.30;4.03;;;5.00;99.90;;;;;;5077325;28;20223;-64
2023/03/18 05:19:32;;;;;;;11.33;3.93;;;5.10;99.90;;;;;;5104949;27;20222;-65
2023/03/18 05:22:35;;;;;;;11.40;4.20;;;5.00;99.90;;;;;;5064446;28;20314;-64
2023/03/18 05:25:35;;;;;;;9.10;3.60;;;5.10;99.90;;;;;;5076495;28;20583;-64
2023/03/18 05:28:24;;;;;;;7.50;3.80;;;5.00;99.90;;;;;;5076681;28;20219;-64
2023/03/18 05:31:39;;;;;;;11.13;4.13;;;5.00;99.90;;;;;;5076355;28;20212;-65
2023/03/18 05:34:28;;;;;;;7.30;3.83;;;5.00;99.90;;;;;;5077337;28;20230;-65
2023/03/18 05:37:18;;;;;;;10.27;3.97;;;5.00;99.90;;;;;;5077670;28;20384;-66
2023/03/18 05:40:18;;;;;;;8.57;4.10;;;5.10;99.90;;;;;;5077485;28;20265;-64
2023/03/18 05:43:25;;;;;;;8.30;3.83;;;5.20;99.90;;;;;;5076147;28;20234;-65
2023/03/18 05:46:17;;;;;;;8.20;4.20;;;5.10;99.90;;;;;;5077851;28;20224;-66
2023/03/18 05:49:27;;;;;;;8.23;3.77;;;5.00;99.90;;;;;;5082938;27;20262;-66
2023/03/18 05:52:37;;;;;;;7.87;4.10;;;5.20;99.90;;;;;;5073048;28;20641;-66
2023/03/18 05:55:31;;;;;;;9.43;4.10;;;5.20;99.90;;;;;;5078540;28;20699;-66
2023/03/18 05:58:21;;;;;;;8.57;4.27;;;5.30;99.90;;;;;;5078257;28;20321;-68
2023/03/18 06:01:15;;;;;;;10.93;4.37;;;5.40;99.90;;;;;;5078187;28;20235;-68
2023/03/18 06:04:05;;;;;;;7.13;3.70;;;5.40;99.90;;;;;;5088897;28;20231;-68
2023/03/18 06:06:55;;;;;;;7.50;3.83;;;5.40;99.90;;;;;;5074661;28;20254;-67
2023/03/18 06:09:46;;;;;;;9.57;3.87;;;5.40;99.90;;;;;;5077780;28;20221;-67
2023/03/18 06:12:34;;;;;;;7.13;4.00;;;5.50;99.90;;;;;;5077212;28;20222;-66
2023/03/18 06:15:24;;;;;;;6.60;3.83;;;5.60;99.90;;;;;;5073475;28;20616;-67
2023/03/18 06:18:13;;;;;;;8.30;4.30;;;5.70;99.90;;;;;;5069267;28;20251;-67
2023/03/18 06:21:05;;;;;;;8.73;4.27;;;5.80;99.90;;;;;;5075249;28;20302;-65
2023/03/18 06:23:56;;;;;;;7.43;4.13;;;5.80;99.90;;;;;;5091252;28;20238;-66
2023/03/18 06:26:48;;;;;;;9.40;3.83;;;5.90;99.90;;;;;;5067979;28;20227;-64
2023/03/18 06:29:37;;;;;;;9.13;4.40;;;6.10;99.90;;;;;;5071250;28;20222;-64
2023/03/18 06:32:32;;;;;;;10.47;4.50;;;6.30;99.90;;;;;;5077456;28;20223;-64
2023/03/18 06:35:22;;;;;;;10.53;4.70;;;6.40;99.90;;;;;;5090724;28;20315;-66
2023/03/18 06:38:13;;;;;;;10.57;3.93;;;6.30;99.90;;;;;;5080770;28;20278;-65
2023/03/18 06:41:03;;;;;;;7.80;4.13;;;6.40;99.90;;;;;;5096363;28;20227;-67
2023/03/18 06:43:58;;;;;;;9.57;3.97;;;6.50;99.90;;;;;;5076672;28;20737;-66
2023/03/18 06:46:50;;;;;;;8.93;4.07;;;6.60;99.90;;;;;;5079864;28;20696;-67
2023/03/18 06:49:38;;;;;;;8.17;3.80;;;6.60;99.90;;;;;;5091539;27;20219;-67
2023/03/18 06:52:36;;;;;;;9.60;4.00;;;6.70;99.90;;;;;;5079715;28;20224;-68
2023/03/18 06:55:31;;;;;;;10.97;4.20;;;6.80;99.90;;;;;;5086263;28;20219;-64
2023/03/18 06:58:20;;;;;;;6.60;3.67;;;6.90;99.90;;;;;;5079999;28;20224;-67
2023/03/18 07:01:25;;;;;;;11.10;4.00;;;7.00;99.90;;;;;;5083078;28;20219;-65
2023/03/18 07:04:14;;;;;;;7.40;3.60;;;7.00;99.90;;;;;;5076415;28;20227;-66
2023/03/18 07:07:04;;;;;;;6.50;3.50;;;7.20;99.90;;;;;;5085397;28;20217;-66
2023/03/18 07:09:55;;;;;;;10.57;3.47;;;7.30;99.90;;;;;;5080103;28;20227;-68
2023/03/18 07:12:44;;;;;;;8.10;3.40;;;7.40;99.90;;;;;;5112668;27;20249;-65
2023/03/18 07:15:33;;;;;;;7.57;3.53;;;7.30;99.90;;;;;;5083260;28;20312;-69
2023/03/18 07:18:24;;;;;;;9.73;4.07;;;7.40;99.90;;;;;;5112085;27;20736;-67
2023/03/18 07:21:13;;;;;;;10.83;4.07;;;7.50;99.90;;;;;;5082012;28;20227;-67
2023/03/18 07:24:02;;;;;;;7.27;3.57;;;7.50;99.90;;;;;;5089142;28;20258;-68
2023/03/18 07:26:52;;;;;;;8.40;3.60;;;7.50;99.90;;;;;;5078335;28;20296;-70
2023/03/18 07:29:41;;;;;;;8.60;3.90;;;7.70;99.90;;;;;;5085186;28;20231;-65
2023/03/18 07:32:30;;;;;;;9.97;3.37;;;7.70;99.90;;;;;;5077355;28;20323;-68
2023/03/18 07:35:21;;;;;;;7.17;3.77;;;7.70;99.90;;;;;;5110302;27;20249;-67
2023/03/18 07:38:12;;;;;;;8.17;4.17;;;7.90;99.90;;;;;;5088636;27;21064;-64
2023/03/18 07:41:01;;;;;;;11.23;3.87;;;8.00;99.90;;;;;;5079777;28;20886;-69
2023/03/18 07:43:50;;;;;;;8.33;3.33;;;8.10;99.90;;;;;;5081552;28;20220;-70
2023/03/18 07:46:40;;;;;;;7.50;3.70;;;8.20;99.90;;;;;;5089049;28;20230;-68
2023/03/18 07:49:29;;;;;;;7.63;3.63;;;8.30;99.90;;;;;;5082333;27;20222;-65
2023/03/18 07:52:19;;;;;;;9.60;3.87;;;8.30;99.90;;;;;;5080424;28;20296;-66
2023/03/18 07:55:09;;;;;;;8.07;3.90;;;8.40;99.90;;;;;;5072108;28;20219;-67
2023/03/18 07:57:58;;;;;;;8.27;3.90;;;8.40;99.90;;;;;;5082534;28;20276;-65
2023/03/18 08:00:48;;;;;;;6.47;3.73;;;8.80;99.90;;;;;;5079844;28;20237;-65
2023/03/18 08:03:37;;;;;;;7.27;3.83;;;9.10;99.90;;;;;;5088442;28;20230;-67
2023/03/18 08:06:26;;;;;;;8.97;3.57;;;9.80;99.90;;;;;;5076036;28;20300;-67
2023/03/18 08:09:16;;;;;;;7.70;3.80;;;10.40;99.90;;;;;;5080013;28;20235;-66
2023/03/18 08:12:05;;;;;;;8.17;3.80;;;11.00;99.90;;;;;;5110510;27;20259;-68
2023/03/18 08:14:55;;;;;;;8.80;4.90;;;11.40;99.90;;;;;;5088251;28;20220;-68
2023/03/18 08:17:43;;;;;;;8.00;3.42;;;11.70;99.90;;;;;;5082492;28;20357;-68
2023/03/18 08:20:32;;;;;;;6.68;3.70;;;12.20;99.90;;;;;;5084383;28;20242;-66
2023/03/18 08:23:21;;;;;;;8.75;4.05;;;12.70;99.90;;;;;;5082123;28;20880;-65
2023/03/18 08:26:11;;;;;;;10.18;3.90;;;12.60;99.40;;;;;;5076659;28;20326;-67
2023/03/18 08:29:00;;;;;;;5.50;3.70;;;12.60;99.70;;;;;;5080015;28;20212;-66
2023/03/18 08:31:50;;;;;;;7.22;3.58;;;13.20;99.40;;;;;;5078058;28;20225;-65
2023/03/18 08:34:38;;;;;;;7.57;4.00;;;13.20;98.20;;;;;;5079123;28;20399;-65
2023/03/18 08:37:28;;;;;;;6.97;3.97;;;13.00;98.40;;;;;;5078675;28;20276;-65
2023/03/18 08:40:19;;;;;;;6.50;3.95;;;13.20;97.70;;;;;;5076014;28;20576;-65
2023/03/18 08:43:10;;;;;;;9.57;3.90;;;13.10;97.30;;;;;;5107892;27;20251;-67
2023/03/18 08:45:58;;;;;;;8.15;3.95;;;13.10;97.00;;;;;;5076101;28;20227;-65
2023/03/18 08:48:47;;;;;;;6.85;3.70;;;13.30;96.40;;;;;;5074645;28;20220;-63
2023/03/18 08:51:37;;;;;;;7.25;3.80;;;13.50;96.30;;;;;;5073332;28;20227;-65
2023/03/18 08:54:26;;;;;;;7.47;4.03;;;13.50;95.60;;;;;;5085247;28;20223;-64
2023/03/18 08:57:16;;;;;;;6.97;4.10;;;13.80;95.30;;;;;;5078137;28;20255;-63
2023/03/18 09:00:07;;;;;;;6.55;3.67;;;13.60;94.30;;;;;;5081153;28;20219;-65
2023/03/18 09:02:56;;;;;;;5.95;3.50;;;13.60;94.40;;;;;;5077825;28;20598;-64
2023/03/18 09:05:48;;;;;;;7.70;3.60;;;13.80;93.50;;;;;;5094963;28;20691;-64
2023/03/18 09:08:38;;;;;;;6.90;3.63;;;13.90;93.90;;;;;;5082560;28;20952;-65
2023/03/18 09:11:27;;;;;;;7.78;3.88;;;14.20;93.30;;;;;;5079562;28;20227;-64
2023/03/18 09:14:17;;;;;;;7.75;3.38;;;14.00;92.30;;;;;;5080915;28;21027;-64
2023/03/18 09:17:07;;;;;;;11.05;4.00;;;13.90;92.30;;;;;;5080575;28;20894;-64
2023/03/18 09:19:56;;;;;;;7.28;3.70;;;13.40;92.80;;;;;;5074885;28;20273;-65
2023/03/18 09:22:46;;;;;;;7.47;3.92;;;13.00;93.40;;;;;;5078160;28;20232;-63
2023/03/18 09:25:35;;;;;;;7.00;3.58;;;12.60;93.40;;;;;;5083229;28;20219;-64
2023/03/18 09:28:24;;;;;;;7.28;3.97;;;12.60;93.60;;;;;;5078576;28;20207;-63
2023/03/18 09:31:14;;;;;;;7.55;3.38;;;12.20;93.80;;;;;;5079989;28;20710;-65
2023/03/18 09:34:05;;;;;;;6.80;3.40;;;12.00;94.20;;;;;;5076072;28;20275;-65
2023/03/18 09:36:56;;;;;;;7.30;4.25;;;11.90;94.20;;;;;;5076168;28;20231;-65
2023/03/18 09:39:46;;;;;;;9.50;3.90;;;12.00;94.20;;;;;;5065082;28;20227;-65
2023/03/18 09:42:46;;;;;;;5.28;3.28;;;11.90;94.30;;;;;;5087591;28;20353;-65
2023/03/18 09:45:44;;;;;;;7.47;3.75;;;12.00;94.10;;;;;;5078585;28;20223;-66
2023/03/18 09:48:51;;;;;;;8.85;3.60;;;11.60;94.70;;;;;;5081233;28;20219;-66
2023/03/18 09:51:50;;;;;;;7.57;3.83;;;11.60;94.40;;;;;;5072489;28;20939;-65
2023/03/18 09:54:43;;;;;;;7.85;3.75;;;11.50;94.60;;;;;;5073807;28;21110;-65
2023/03/18 09:57:36;;;;;;;7.50;3.40;;;11.70;94.90;;;;;;5065795;28;20299;-66
2023/03/18 10:00:29;;;;;;;7.25;3.47;;;11.70;94.60;;;;;;5077815;28;20276;-65
2023/03/18 10:03:27;;;;;;;6.60;3.75;;;11.90;94.70;;;;;;5079640;28;20269;-67
2023/03/18 10:06:18;;;;;;;5.35;3.60;;;11.90;94.40;;;;;;5088325;28;20773;-67
2023/03/18 10:09:14;;;;;;;6.28;3.83;;;12.00;94.20;;;;;;5075715;28;20747;-65
2023/03/18 10:12:13;;;;;;;6.95;3.65;;;11.90;94.50;;;;;;5072919;28;20269;-66
2023/03/18 10:15:12;;;;;;;8.68;3.92;;;12.00;94.20;;;;;;5079692;28;20679;-61
2023/03/18 10:18:05;;;;;;;6.78;3.78;;;12.10;94.10;;;;;;5080842;28;20212;-62
2023/03/18 10:21:07;;;;;;;7.82;4.00;;;12.10;94.30;;;;;;5080501;28;20228;-64
2023/03/18 10:24:09;;;;;;;6.20;3.50;;;11.90;94.30;;;;;;5079372;28;20739;-62
2023/03/18 10:27:09;;;;;;;5.13;3.30;;;12.10;94.00;;;;;;5076493;28;20426;-63
2023/03/18 10:30:04;;;;;;;7.97;3.42;;;12.20;94.40;;;;;;5080646;28;20641;-64
2023/03/18 10:33:04;;;;;;;10.02;3.60;;;12.20;93.70;;;;;;5091361;27;20219;-62
2023/03/18 10:35:59;;;;;;;6.93;3.53;;;12.10;93.50;;;;;;5075488;28;20210;-62
2023/03/18 10:38:50;;;;;;;6.13;3.58;;;12.20;93.80;;;;;;5080308;28;20223;-61
2023/03/18 10:41:42;;;;;;;9.48;4.40;;;11.80;93.80;;;;;;5065604;28;20717;-64
2023/03/18 10:44:36;;;;;;;5.47;3.25;;;12.20;93.60;;;;;;5077827;28;20227;-66
2023/03/18 10:47:28;;;;;;;6.68;3.75;;;12.00;93.40;;;;;;5090685;27;20708;-67
2023/03/18 10:50:19;;;;;;;7.18;3.63;;;11.90;93.40;;;;;;5079782;28;20276;-67
2023/03/18 10:53:18;;;;;;;7.60;3.60;;;12.10;93.70;;;;;;5075617;28;20692;-65
2023/03/18 10:56:09;;;;;;;9.73;3.55;;;12.30;93.20;;;;;;5083791;28;20227;-66
2023/03/18 10:58:58;;;;;;;6.07;3.70;;;12.00;93.30;;;;;;5081014;28;20223;-65
2023/03/18 11:01:54;;;;;;;5.18;3.30;;;12.20;93.50;;;;;;5075826;28;20264;-65
2023/03/18 11:04:51;;;;;;;9.77;3.75;;;12.40;93.40;;;;;;5082070;28;20539;-66
2023/03/18 11:07:55;;;;;;;4.15;3.30;;;12.40;93.20;;;;;;5082582;28;20240;-64
2023/03/18 11:10:45;;;;;;;7.95;3.78;;;12.30;93.10;;;;;;5082557;28;20683;-64
2023/03/18 11:13:34;;;;;;;7.00;3.55;;;12.20;92.70;;;;;;5082826;28;20223;-65
2023/03/18 11:16:31;;;;;;;6.28;3.92;;;12.40;93.10;;;;;;5107546;27;20310;-65
2023/03/18 11:19:37;;;;;;;7.68;3.70;;;12.50;93.00;;;;;;5081281;28;20730;-65
2023/03/18 11:22:27;;;;;;;7.95;3.40;;;12.60;92.80;;;;;;5079431;28;20234;-65
2023/03/18 11:25:18;;;;;;;6.45;3.40;;;12.70;93.10;;;;;;5080769;28;20314;-65
2023/03/18 11:28:19;;;;;;;6.45;3.00;;;12.70;92.60;;;;;;5080218;28;20366;-65
2023/03/18 11:31:16;;;;;;;6.65;3.30;;;12.60;92.80;;;;;;5083664;28;20312;-65
2023/03/18 11:34:09;;;;;;;7.20;3.75;;;12.70;92.10;;;;;;5077104;28;20223;-66
2023/03/18 11:37:03;;;;;;;9.95;3.50;;;12.70;92.60;;;;;;5072362;28;21217;-66
2023/03/18 11:39:52;;;;;;;7.45;3.72;;;12.60;91.90;;;;;;5106792;27;20324;-66
2023/03/18 11:42:48;;;;;;;6.50;3.83;;;12.50;92.50;;;;;;5093547;27;20694;-65
2023/03/18 11:45:44;;;;;;;8.73;3.65;;;12.60;91.90;;;;;;5082681;28;20554;-66
2023/03/18 11:48:36;;;;;;;6.68;3.40;;;12.50;91.70;;;;;;5083520;28;20825;-67
2023/03/18 11:51:43;;;;;;;7.97;3.60;;;12.50;91.90;;;;;;5087785;28;20636;-65
2023/03/18 11:54:51;;;;;;;7.68;3.65;;;12.60;91.90;;;;;;5070027;28;20230;-66
2023/03/18 11:57:51;;;;;;;7.57;3.40;;;12.60;92.20;;;;;;5082770;28;20223;-65
2023/03/18 12:00:45;;;;;;;8.25;4.28;;;12.60;92.10;;;;;;5079089;28;20551;-65
2023/03/18 12:04:20;;;;;;;9.43;3.80;;;12.70;91.90;;;;;;5063618;28;20236;-67
2023/03/18 12:07:41;;;;;;;8.90;3.30;;;12.60;91.70;;;;;;5051520;28;21057;-65
2023/03/18 12:10:36;;;;;;;9.32;3.50;;;12.70;91.90;;;;;;5028373;28;20244;-66
2023/03/18 12:13:39;;;;;;;7.65;3.47;;;12.40;91.10;;;;;;5076563;28;20223;-67
2023/03/18 12:16:42;;;;;;;7.97;4.38;;;12.50;91.50;;;;;;5072341;28;20230;-66
2023/03/18 12:19:57;;;;;;;6.60;3.78;;;12.70;91.40;;;;;;5081739;28;20223;-66
2023/03/18 12:23:00;;;;;;;10.02;4.32;;;12.80;91.30;;;;;;5077706;28;20681;-66
2023/03/18 12:26:01;;;;;;;6.70;3.80;;;12.80;91.00;;;;;;5080683;28;20250;-67
2023/03/18 12:29:03;;;;;;;8.90;3.75;;;12.90;91.10;;;;;;5060947;28;20223;-67
2023/03/18 12:32:09;;;;;;;9.35;3.83;;;12.80;90.90;;;;;;5083489;28;20227;-64
2023/03/18 12:35:24;;;;;;;9.02;3.70;;;12.90;91.20;;;;;;5079557;28;20344;-66
2023/03/18 12:38:40;;;;;;;5.75;3.53;;;13.00;91.20;;;;;;5078605;27;20219;-65
2023/03/18 12:41:40;;;;;;;9.65;3.70;;;12.90;91.10;;;;;;5079585;28;20215;-68
2023/03/18 12:44:46;;;;;;;9.40;3.90;;;13.00;91.20;;;;;;5084459;28;20282;-64
2023/03/18 12:47:41;;;;;;;6.13;3.50;;;13.00;91.50;;;;;;5077514;28;20227;-66
2023/03/18 12:50:35;;;;;;;7.40;3.40;;;13.00;91.20;;;;;;5075639;28;20243;-65
2023/03/18 12:53:30;;;;;;;8.82;4.97;;;12.90;91.50;;;;;;5081222;28;20211;-65
2023/03/18 12:56:22;;;;;;;9.63;3.90;;;12.90;91.10;;;;;;5080011;28;20224;-65
2023/03/18 12:59:19;;;;;;;12.93;3.65;;;12.80;91.20;;;;;;5075921;28;20306;-66
2023/03/18 13:02:21;;;;;;;6.57;3.50;;;12.70;91.00;;;;;;5074428;28;20224;-66
2023/03/18 13:05:20;;;;;;;6.90;3.85;;;12.80;91.10;;;;;;5069792;28;20223;-65
2023/03/18 13:08:46;;;;;;;6.90;3.80;;;12.90;91.60;;;;;;5080515;28;20220;-66
2023/03/18 13:11:54;;;;;;;6.43;3.55;;;13.00;91.40;;;;;;5103794;27;20219;-67
2023/03/18 13:14:51;;;;;;;5.85;3.78;;;13.20;91.40;;;;;;5080875;28;20654;-64
2023/03/18 13:17:43;;;;;;;5.97;3.63;;;13.00;91.00;;;;;;5077297;28;20317;-67
2023/03/18 13:20:36;;;;;;;7.38;3.60;;;13.00;91.10;;;;;;5078651;28;20231;-65
2023/03/18 13:23:59;;;;;;;8.85;3.40;;;13.10;90.70;;;;;;5092620;28;20302;-65
2023/03/18 13:27:05;;;;;;;7.43;3.72;;;13.00;91.20;;;;;;5078372;28;20832;-64
2023/03/18 13:30:04;;;;;;;7.55;3.58;;;12.90;90.70;;;;;;5074566;28;20215;-66
2023/03/18 13:33:13;;;;;;;6.55;3.53;;;13.00;90.70;;;;;;5075391;28;20441;-67
2023/03/18 13:36:50;;;;;;;7.65;3.97;;;12.90;90.40;;;;;;5078565;28;20344;-67
2023/03/18 13:39:52;;;;;;;6.38;3.53;;;13.00;90.70;;;;;;5037173;28;20241;-66
2023/03/18 13:42:43;;;;;;;7.25;3.58;;;13.00;90.60;;;;;;5079991;28;20317;-65
2023/03/18 13:45:37;;;;;;;6.93;3.93;;;13.00;90.70;;;;;;5063889;28;21131;-65
2023/03/18 13:48:30;;;;;;;6.60;3.88;;;13.10;90.70;;;;;;5078809;28;20527;-66
2023/03/18 13:51:40;;;;;;;9.48;3.97;;;13.00;90.80;;;;;;5078030;28;20702;-65
2023/03/18 13:54:34;;;;;;;6.38;3.72;;;12.90;90.50;;;;;;5071754;28;20229;-66
2023/03/18 13:57:48;;;;;;;6.45;3.67;;;12.80;90.70;;;;;;5073477;28;20211;-65
2023/03/18 14:00:40;;;;;;;7.60;4.20;;;12.80;90.50;;;;;;5076759;28;20301;-66
2023/03/18 14:03:31;;;;;;;6.53;3.88;;;12.80;90.70;;;;;;5077300;28;20227;-65
2023/03/18 14:06:25;;;;;;;11.30;3.80;;;12.90;90.60;;;;;;5083384;28;20223;-65
2023/03/18 14:09:46;;;;;;;7.18;4.47;;;12.90;90.90;;;;;;5071291;28;20548;-66
2023/03/18 14:12:40;;;;;;;8.18;3.95;;;12.90;90.50;;;;;;5086128;28;20227;-64
2023/03/18 14:15:41;;;;;;;8.15;4.18;;;12.90;90.60;;;;;;5073306;28;20324;-67
2023/03/18 14:18:36;;;;;;;11.30;4.13;;;12.90;90.60;;;;;;5066863;28;20223;-66
2023/03/18 14:21:27;;;;;;;9.45;4.40;;;12.90;91.00;;;;;;5070374;28;20310;-65
2023/03/18 14:24:23;;;;;;;7.82;3.92;;;12.90;90.60;;;;;;5075518;28;20223;-65
2023/03/18 14:27:19;;;;;;;9.38;4.30;;;12.80;91.20;;;;;;5087440;28;20226;-66
2023/03/18 14:30:40;;;;;;;8.05;3.67;;;12.80;91.00;;;;;;5072017;28;20529;-66
2023/03/18 14:33:33;;;;;;;7.00;3.90;;;12.90;90.60;;;;;;5072592;28;20219;-65
2023/03/18 14:36:40;;;;;;;6.35;3.92;;;13.00;90.70;;;;;;5075515;28;20392;-66
2023/03/18 14:39:33;;;;;;;7.38;4.18;;;13.00;91.00;;;;;;5071165;28;20228;-65
2023/03/18 14:42:35;;;;;;;8.82;4.18;;;13.00;90.70;;;;;;5087435;28;20231;-67
2023/03/18 14:45:28;;;;;;;10.23;4.40;;;13.00;90.50;;;;;;5071516;28;20256;-65
2023/03/18 14:48:20;;;;;;;8.30;4.20;;;13.00;90.70;;;;;;5084044;28;20276;-67
2023/03/18 14:51:15;;;;;;;10.15;4.40;;;13.00;90.80;;;;;;5074078;28;20272;-66
2023/03/18 14:54:05;;;;;;;7.50;4.68;;;13.00;90.50;;;;;;5074788;28;20236;-67
2023/03/18 14:56:56;;;;;;;7.10;4.25;;;13.00;90.60;;;;;;5066705;28;20224;-67
2023/03/18 14:59:45;;;;;;;8.80;4.75;;;13.00;90.40;;;;;;5078656;28;20231;-65
2023/03/18 15:02:38;;;;;;;7.15;4.20;;;13.00;90.50;;;;;;5077915;28;20224;-66
2023/03/18 15:05:33;;;;;;;7.75;4.30;;;13.00;90.50;;;;;;5075673;28;20227;-65
2023/03/18 15:08:28;;;;;;;7.50;4.97;;;13.00;90.70;;;;;;5083123;28;20223;-65